createdAt,value
2019-03-26T00:00:31.532Z,46.40
2019-03-26T00:03:00.713Z,46.30
2019-03-26T00:05:29.927Z,46.70
2019-03-26T00:07:59.086Z,46.70
2019-03-26T00:10:28.243Z,46.30
2019-03-26T00:12:58.486Z,46.50
2019-03-26T00:15:27.662Z,46.60
2019-03-26T00:17:58.002Z,46.80
2019-03-26T00:20:27.160Z,46.70
2019-03-26T00:22:56.370Z,46.90
2019-03-26T00:25:25.562Z,47.10
2019-03-26T00:27:54.709Z,47.30
2019-03-26T00:30:23.945Z,47.30
2019-03-26T00:32:53.174Z,47.60
2019-03-26T00:35:22.337Z,48.30
2019-03-26T00:37:51.505Z,48.60
2019-03-26T00:40:20.730Z,48.70
2019-03-26T00:42:49.900Z,48.30
2019-03-26T00:45:19.076Z,48.20
2019-03-26T00:47:48.322Z,48.30
2019-03-26T00:50:17.514Z,48.60
2019-03-26T00:52:46.693Z,48.60
2019-03-26T00:55:22.407Z,49.20
2019-03-26T00:57:46.860Z,49.80
2019-03-26T01:00:19.343Z,49.80
2019-03-26T01:02:48.627Z,50.30
2019-03-26T01:05:18.030Z,51.00
2019-03-26T01:07:47.300Z,51.00
2019-03-26T01:10:22.468Z,51.30
2019-03-26T01:12:51.654Z,51.50
2019-03-26T01:15:20.826Z,51.90
2019-03-26T01:17:49.998Z,52.20
2019-03-26T01:20:19.186Z,52.10
2019-03-26T01:22:48.342Z,52.10
2019-03-26T01:25:17.581Z,52.10
2019-03-26T01:27:46.743Z,52.10
2019-03-26T01:30:15.917Z,52.00
2019-03-26T01:32:45.092Z,52.20
2019-03-26T01:35:14.323Z,51.60
2019-03-26T01:37:43.473Z,51.80
2019-03-26T01:40:12.646Z,51.40
2019-03-26T01:42:42.001Z,51.30
2019-03-26T01:45:11.160Z,51.50
2019-03-26T01:47:40.348Z,51.50
2019-03-26T01:50:09.566Z,51.50
2019-03-26T01:52:38.713Z,51.30
2019-03-26T01:55:07.950Z,51.30
2019-03-26T01:57:37.118Z,51.40
2019-03-26T02:00:06.289Z,51.30
2019-03-26T02:02:35.616Z,51.20
2019-03-26T02:05:06.007Z,51.00
2019-03-26T02:07:35.176Z,50.90
2019-03-26T02:10:04.488Z,50.80
2019-03-26T02:12:33.740Z,51.00
2019-03-26T02:15:03.023Z,50.90
2019-03-26T02:17:32.274Z,50.90
2019-03-26T02:20:01.573Z,50.90
2019-03-26T02:22:30.911Z,51.00
2019-03-26T02:25:00.342Z,51.10
2019-03-26T02:27:29.620Z,51.10
2019-03-26T02:29:58.762Z,51.20
2019-03-26T02:32:27.924Z,51.20
2019-03-26T02:35:17.842Z,51.50
2019-03-26T02:37:40.006Z,52.00
2019-03-26T02:40:09.228Z,51.60
2019-03-26T02:42:38.460Z,51.80
2019-03-26T02:45:08.520Z,51.80
2019-03-26T02:47:38.120Z,51.90
2019-03-26T02:50:08.212Z,52.00
2019-03-26T02:52:37.468Z,52.20
2019-03-26T02:55:06.695Z,52.10
2019-03-26T02:57:37.539Z,52.30
2019-03-26T03:00:07.806Z,52.20
2019-03-26T03:02:37.026Z,52.50
2019-03-26T03:05:06.261Z,52.30
2019-03-26T03:07:35.496Z,52.50
2019-03-26T03:10:08.103Z,52.30
2019-03-26T03:12:37.311Z,52.50
2019-03-26T03:15:07.879Z,52.40
2019-03-26T03:17:37.093Z,52.50
2019-03-26T03:20:06.342Z,52.80
2019-03-26T03:22:35.582Z,52.80
2019-03-26T03:25:05.691Z,52.70
2019-03-26T03:27:34.847Z,52.90
2019-03-26T03:30:05.743Z,53.10
2019-03-26T03:32:35.788Z,53.10
2019-03-26T03:35:07.438Z,53.00
2019-03-26T03:37:36.614Z,52.80
2019-03-26T03:40:06.052Z,53.00
2019-03-26T03:42:35.549Z,52.90
2019-03-26T03:45:07.748Z,52.90
2019-03-26T03:47:36.973Z,52.70
2019-03-26T03:50:07.630Z,52.60
2019-03-26T03:52:38.956Z,52.60
2019-03-26T03:55:09.732Z,52.40
2019-03-26T03:57:39.068Z,52.40
2019-03-26T04:00:11.550Z,52.40
2019-03-26T04:02:40.788Z,52.40
2019-03-26T04:05:09.952Z,52.10
2019-03-26T04:07:42.408Z,52.10
2019-03-26T04:10:31.691Z,52.10
2019-03-26T04:13:02.540Z,51.90
2019-03-26T04:15:34.950Z,52.00
2019-03-26T04:18:03.505Z,51.60
2019-03-26T04:20:34.504Z,51.60
2019-03-26T04:23:05.541Z,51.50
2019-03-26T04:25:36.526Z,51.50
2019-03-26T04:28:05.798Z,51.20
2019-03-26T04:30:35.091Z,51.40
2019-03-26T04:33:06.110Z,51.30
2019-03-26T04:35:36.153Z,51.10
2019-03-26T04:38:05.447Z,51.20
2019-03-26T04:40:34.737Z,51.40
2019-03-26T04:43:12.471Z,51.00
2019-03-26T04:45:41.772Z,50.90
2019-03-26T04:48:12.126Z,50.80
2019-03-26T04:50:41.289Z,50.80
2019-03-26T04:53:10.467Z,50.90
2019-03-26T04:55:39.629Z,50.90
2019-03-26T04:58:08.848Z,50.90
2019-03-26T05:00:38.098Z,50.60
2019-03-26T05:03:08.311Z,50.40
2019-03-26T05:05:37.646Z,50.30
2019-03-26T05:08:06.878Z,50.30
2019-03-26T05:10:36.035Z,49.80
2019-03-26T05:13:05.587Z,49.70
2019-03-26T05:15:34.996Z,49.80
2019-03-26T05:18:04.226Z,50.10
2019-03-26T05:20:33.480Z,50.30
2019-03-26T05:23:02.653Z,50.00
2019-03-26T05:25:31.890Z,49.40
2019-03-26T05:28:02.126Z,49.50
2019-03-26T05:30:33.116Z,49.20
2019-03-26T05:33:02.261Z,49.00
2019-03-26T05:35:31.586Z,49.30
2019-03-26T05:38:00.763Z,49.80
2019-03-26T05:40:30.027Z,49.40
2019-03-26T05:42:59.211Z,49.80
2019-03-26T05:45:28.428Z,50.00
2019-03-26T05:47:57.664Z,50.40
2019-03-26T05:50:26.842Z,50.70
2019-03-26T05:52:56.183Z,50.40
2019-03-26T05:55:25.455Z,50.60
2019-03-26T05:57:54.680Z,49.70
2019-03-26T06:00:25.858Z,48.70
2019-03-26T06:02:55.112Z,48.50
2019-03-26T06:05:24.258Z,48.90
2019-03-26T06:07:53.517Z,48.10
2019-03-26T06:10:42.120Z,48.60
2019-03-26T06:13:11.288Z,48.50
2019-03-26T06:15:40.523Z,49.30
2019-03-26T06:18:09.713Z,48.00
2019-03-26T06:20:38.888Z,48.50
2019-03-26T06:23:08.309Z,47.70
2019-03-26T06:25:37.568Z,48.00
2019-03-26T06:28:06.910Z,47.90
2019-03-26T06:30:36.331Z,47.90
2019-03-26T06:33:05.605Z,47.70
2019-03-26T06:35:35.953Z,47.70
2019-03-26T06:38:05.228Z,46.90
2019-03-26T06:40:34.645Z,46.40
2019-03-26T06:43:03.882Z,46.80
2019-03-26T06:45:33.063Z,46.00
2019-03-26T06:48:04.284Z,46.00
2019-03-26T06:50:33.294Z,45.90
2019-03-26T06:53:02.534Z,45.90
2019-03-26T06:55:31.768Z,46.10
2019-03-26T06:58:00.939Z,46.10
2019-03-26T07:00:31.757Z,46.50
2019-03-26T07:03:01.927Z,46.60
2019-03-26T07:05:31.136Z,46.90
2019-03-26T07:08:00.385Z,46.80
2019-03-26T07:10:30.148Z,46.60
2019-03-26T07:12:59.466Z,47.40
2019-03-26T07:15:28.697Z,47.60
2019-03-26T07:17:57.942Z,47.40
2019-03-26T07:20:27.183Z,47.30
2019-03-26T07:22:56.496Z,47.70
2019-03-26T07:25:25.742Z,48.20
2019-03-26T07:27:54.910Z,48.20
2019-03-26T07:30:38.648Z,48.40
2019-03-26T07:33:07.976Z,48.50
2019-03-26T07:35:37.230Z,48.60
2019-03-26T07:38:06.536Z,48.30
2019-03-26T07:40:35.790Z,47.80
2019-03-26T07:43:05.121Z,47.80
2019-03-26T07:45:35.620Z,48.00
2019-03-26T07:48:04.896Z,48.00
2019-03-26T07:50:34.147Z,48.10
2019-03-26T07:53:03.384Z,47.50
2019-03-26T07:55:32.723Z,47.50
2019-03-26T07:58:01.918Z,47.60
2019-03-26T08:00:36.164Z,47.30
2019-03-26T08:03:05.974Z,47.00
2019-03-26T08:05:35.272Z,47.30
2019-03-26T08:08:04.511Z,47.40
2019-03-26T08:10:33.755Z,47.00
2019-03-26T08:13:02.951Z,47.00
2019-03-26T08:15:32.203Z,47.10
2019-03-26T08:18:01.452Z,47.50
2019-03-26T08:20:30.652Z,47.50
2019-03-26T08:22:59.882Z,46.70
2019-03-26T08:25:29.067Z,46.00
2019-03-26T08:27:58.288Z,45.20
2019-03-26T08:30:27.595Z,43.80
2019-03-26T08:32:56.808Z,44.30
2019-03-26T08:35:25.982Z,44.20
2019-03-26T08:37:55.165Z,44.60
2019-03-26T08:40:24.348Z,43.40
2019-03-26T08:42:53.660Z,43.80
2019-03-26T08:45:22.815Z,42.90
2019-03-26T08:47:52.042Z,43.70
2019-03-26T08:50:21.274Z,42.80
2019-03-26T08:52:50.578Z,42.20
2019-03-26T08:55:19.751Z,41.90
2019-03-26T08:57:49.067Z,42.30
2019-03-26T09:00:18.295Z,42.00
2019-03-26T09:02:47.618Z,40.50
2019-03-26T09:05:16.900Z,40.00
2019-03-26T09:07:46.071Z,40.20
2019-03-26T09:10:15.373Z,39.90
2019-03-26T09:12:44.555Z,39.30
2019-03-26T09:15:14.552Z,39.20
2019-03-26T09:17:44.827Z,39.10
2019-03-26T09:20:14.432Z,36.00
2019-03-26T09:22:44.829Z,36.80
2019-03-26T09:25:14.109Z,36.10
2019-03-26T09:27:43.434Z,37.70
2019-03-26T09:30:12.607Z,36.90
2019-03-26T09:32:41.882Z,37.00
2019-03-26T09:35:11.048Z,37.90
2019-03-26T09:37:40.280Z,38.00
2019-03-26T09:40:09.529Z,37.50
2019-03-26T09:42:38.759Z,37.60
2019-03-26T09:45:11.114Z,37.40
2019-03-26T09:47:40.367Z,36.80
2019-03-26T09:50:12.255Z,37.00
2019-03-26T09:52:41.492Z,37.00
2019-03-26T09:55:10.747Z,36.60
2019-03-26T09:57:39.986Z,36.00
2019-03-26T10:00:10.187Z,36.60
2019-03-26T10:02:42.771Z,36.60
2019-03-26T10:05:10.494Z,36.20
2019-03-26T10:07:39.686Z,36.90
2019-03-26T10:10:28.364Z,35.90
2019-03-26T10:12:58.754Z,36.10
2019-03-26T10:15:27.930Z,36.90
2019-03-26T10:17:57.174Z,35.90
2019-03-26T10:20:27.660Z,35.60
2019-03-26T10:22:57.032Z,37.10
2019-03-26T10:25:26.198Z,36.60
2019-03-26T10:27:55.814Z,36.70
2019-03-26T10:30:36.090Z,35.50
2019-03-26T10:33:05.693Z,35.50
2019-03-26T10:35:34.844Z,35.50
2019-03-26T10:38:04.661Z,35.50
2019-03-26T10:40:38.474Z,35.30
2019-03-26T10:43:07.660Z,35.30
2019-03-26T10:45:36.858Z,35.80
2019-03-26T10:48:06.118Z,35.50
2019-03-26T10:50:35.513Z,35.10
2019-03-26T10:53:04.944Z,36.40
2019-03-26T10:55:34.188Z,37.00
2019-03-26T10:58:03.450Z,36.50
2019-03-26T11:00:33.040Z,36.30
2019-03-26T11:03:02.321Z,35.80
2019-03-26T11:05:31.493Z,34.00
2019-03-26T11:08:00.705Z,33.80
2019-03-26T11:10:30.836Z,33.70
2019-03-26T11:13:00.151Z,33.50
2019-03-26T11:15:29.425Z,32.70
2019-03-26T11:17:58.587Z,33.00
2019-03-26T11:20:27.779Z,33.10
2019-03-26T11:22:58.275Z,32.00
2019-03-26T11:25:28.431Z,32.70
2019-03-26T11:27:57.688Z,33.60
2019-03-26T11:30:26.896Z,32.80
2019-03-26T11:32:56.189Z,33.50
2019-03-26T11:35:25.415Z,33.00
2019-03-26T11:37:54.599Z,33.10
2019-03-26T11:40:23.844Z,32.00
2019-03-26T11:42:53.091Z,29.90
2019-03-26T11:45:22.250Z,29.50
2019-03-26T11:48:01.745Z,29.70
2019-03-26T11:50:30.968Z,29.60
2019-03-26T11:53:00.155Z,29.40
2019-03-26T11:55:29.360Z,29.50
2019-03-26T11:57:58.548Z,28.60
2019-03-26T12:00:32.081Z,29.10
2019-03-26T12:03:02.595Z,28.70
2019-03-26T12:05:31.894Z,28.80
2019-03-26T12:08:03.825Z,28.20
2019-03-26T12:10:33.266Z,28.10
2019-03-26T12:13:02.799Z,28.40
2019-03-26T12:15:32.055Z,29.10
2019-03-26T12:18:01.235Z,27.70
2019-03-26T12:20:30.510Z,27.50
2019-03-26T12:23:00.001Z,27.60
2019-03-26T12:25:29.407Z,27.70
2019-03-26T12:27:58.804Z,27.80
2019-03-26T12:30:35.154Z,25.90
2019-03-26T12:33:05.106Z,24.90
2019-03-26T12:35:34.448Z,25.90
2019-03-26T12:38:09.491Z,25.50
2019-03-26T12:40:38.867Z,25.70
2019-03-26T12:43:08.555Z,26.50
2019-03-26T12:45:38.318Z,26.10
2019-03-26T12:48:08.097Z,25.20
2019-03-26T12:50:37.595Z,24.60
2019-03-26T12:53:06.920Z,24.70
2019-03-26T12:55:37.257Z,24.50
2019-03-26T12:58:06.612Z,23.20
2019-03-26T13:00:37.261Z,23.30
2019-03-26T13:03:09.829Z,23.30
2019-03-26T13:05:39.739Z,23.20
2019-03-26T13:08:09.426Z,23.20
2019-03-26T13:10:52.461Z,24.00
2019-03-26T13:13:09.714Z,23.20
2019-03-26T13:15:39.208Z,22.40
2019-03-26T13:18:11.090Z,22.50
2019-03-26T13:20:39.811Z,22.40
2019-03-26T13:23:09.154Z,21.90
2019-03-26T13:25:38.401Z,21.90
2019-03-26T13:28:07.720Z,22.50
2019-03-26T13:30:38.675Z,22.10
2019-03-26T13:33:08.060Z,20.40
2019-03-26T13:35:40.778Z,21.10
2019-03-26T13:38:17.313Z,20.90
2019-03-26T13:40:46.508Z,21.60
2019-03-26T13:43:17.182Z,20.90
2019-03-26T13:45:49.742Z,20.80
2019-03-26T13:48:21.425Z,20.90
2019-03-26T13:50:51.558Z,20.40
2019-03-26T13:53:20.980Z,20.10
2019-03-26T13:55:51.735Z,20.10
2019-03-26T13:58:21.042Z,20.00
2019-03-26T14:00:50.300Z,20.20
2019-03-26T14:03:21.194Z,19.30
2019-03-26T14:05:50.464Z,18.20
2019-03-26T14:08:19.861Z,19.30
2019-03-26T14:10:50.706Z,18.20
2019-03-26T14:13:20.733Z,18.30
2019-03-26T14:15:51.667Z,16.80
2019-03-26T14:18:21.219Z,17.10
2019-03-26T14:20:51.951Z,16.40
2019-03-26T14:23:22.642Z,16.80
2019-03-26T14:25:58.292Z,17.20
2019-03-26T14:28:36.297Z,16.40
2019-03-26T14:31:08.981Z,16.30
2019-03-26T14:33:41.936Z,15.70
2019-03-26T14:36:13.931Z,15.70
2019-03-26T14:38:43.234Z,15.50
2019-03-26T14:41:12.449Z,14.90
2019-03-26T14:43:41.900Z,14.80
2019-03-26T14:46:11.164Z,15.10
2019-03-26T14:48:40.328Z,15.00
2019-03-26T14:51:09.502Z,15.40
2019-03-26T14:53:38.766Z,14.20
2019-03-26T14:56:07.978Z,15.00
2019-03-26T14:58:37.200Z,14.10
2019-03-26T15:01:06.522Z,14.40
2019-03-26T15:03:35.764Z,14.20
2019-03-26T15:06:05.128Z,13.90
2019-03-26T15:08:34.315Z,14.10
2019-03-26T15:11:08.378Z,14.40
2019-03-26T15:13:36.393Z,13.90
2019-03-26T15:16:05.566Z,14.30
2019-03-26T15:18:34.870Z,14.10
2019-03-26T15:21:04.301Z,14.60
2019-03-26T15:23:33.600Z,13.50
2019-03-26T15:26:02.769Z,13.50
2019-03-26T15:28:32.027Z,13.30
2019-03-26T15:31:01.291Z,13.40
2019-03-26T15:33:40.822Z,13.50
2019-03-26T15:36:10.082Z,14.00
2019-03-26T15:39:00.045Z,13.70
2019-03-26T15:41:30.479Z,13.50
2019-03-26T15:47:25.441Z,13.20
2019-03-26T15:49:55.023Z,13.60
2019-03-26T15:52:24.345Z,13.70
2019-03-26T15:54:54.048Z,14.30
2019-03-26T15:57:23.448Z,14.70
2019-03-26T15:59:52.751Z,14.60
2019-03-26T16:02:22.213Z,14.50
2019-03-26T16:04:51.623Z,15.00
2019-03-26T16:07:21.121Z,15.20
2019-03-26T16:09:50.377Z,15.30
2019-03-26T16:12:19.610Z,15.20
2019-03-26T16:14:48.841Z,15.30
2019-03-26T16:17:18.050Z,15.10
2019-03-26T16:19:47.296Z,15.10
2019-03-26T16:22:17.869Z,14.90
2019-03-26T16:24:48.406Z,15.30
2019-03-26T16:27:17.632Z,15.60
2019-03-26T16:29:46.968Z,15.50
2019-03-26T16:32:16.255Z,15.70
2019-03-26T16:34:45.738Z,16.30
2019-03-26T16:37:15.017Z,16.30
2019-03-26T16:39:44.484Z,16.80
2019-03-26T16:42:13.920Z,18.20
2019-03-26T16:44:43.237Z,19.80
2019-03-26T16:47:12.528Z,20.90
2019-03-26T16:49:41.741Z,21.20
2019-03-26T16:52:11.041Z,22.30
2019-03-26T16:54:40.355Z,22.80
2019-03-26T16:57:09.735Z,23.40
2019-03-26T16:59:39.058Z,23.40
2019-03-26T17:02:08.274Z,24.00
2019-03-26T17:04:37.557Z,24.50
2019-03-26T17:07:08.092Z,24.00
2019-03-26T17:09:37.453Z,24.10
2019-03-26T17:12:06.753Z,24.00
2019-03-26T17:14:36.030Z,24.00
2019-03-26T17:17:05.323Z,25.30
2019-03-26T17:19:34.604Z,25.60
2019-03-26T17:22:03.983Z,26.40
2019-03-26T17:24:33.334Z,27.80
2019-03-26T17:27:02.713Z,26.60
2019-03-26T17:29:32.046Z,26.90
2019-03-26T17:32:01.492Z,27.10
2019-03-26T17:34:30.753Z,27.40
2019-03-26T17:37:00.036Z,27.50
2019-03-26T17:39:31.679Z,27.60
2019-03-26T17:42:00.252Z,28.00
2019-03-26T17:44:29.594Z,28.30
2019-03-26T17:46:58.884Z,28.40
2019-03-26T17:49:28.176Z,28.70
2019-03-26T17:51:57.607Z,29.00
2019-03-26T17:54:26.910Z,30.00
2019-03-26T17:56:56.197Z,29.60
2019-03-26T17:59:25.500Z,29.50
2019-03-26T18:01:54.709Z,29.60
2019-03-26T18:04:23.967Z,29.50
2019-03-26T18:06:53.131Z,29.40
2019-03-26T18:09:22.500Z,29.90
2019-03-26T18:11:51.682Z,30.00
2019-03-26T18:14:20.857Z,30.00
2019-03-26T18:16:50.212Z,30.40
2019-03-26T18:19:19.449Z,30.50
2019-03-26T18:21:51.662Z,31.60
2019-03-26T18:24:19.570Z,31.90
2019-03-26T18:26:48.854Z,32.00
2019-03-26T18:29:18.149Z,32.90
2019-03-26T18:31:47.521Z,33.20
2019-03-26T18:34:16.891Z,33.50
2019-03-26T18:36:46.447Z,34.00
2019-03-26T18:39:15.692Z,33.90
2019-03-26T18:41:45.351Z,34.10
2019-03-26T18:44:15.985Z,34.30
2019-03-26T18:46:45.298Z,34.50
2019-03-26T18:49:14.557Z,34.70
2019-03-26T18:51:43.959Z,35.10
2019-03-26T18:54:13.290Z,35.10
2019-03-26T18:56:42.604Z,35.30
2019-03-26T18:59:11.856Z,35.50
2019-03-26T19:01:41.216Z,35.60
2019-03-26T19:04:11.525Z,35.80
2019-03-26T19:06:40.784Z,35.80
2019-03-26T19:09:10.056Z,36.30
2019-03-26T19:11:39.373Z,37.30
2019-03-26T19:14:08.581Z,37.90
2019-03-26T19:16:37.882Z,37.60
2019-03-26T19:19:07.189Z,38.10
2019-03-26T19:21:37.685Z,38.10
2019-03-26T19:24:06.934Z,38.00
2019-03-26T19:26:36.188Z,37.80
2019-03-26T19:29:05.628Z,38.20
2019-03-26T19:31:34.802Z,38.40
2019-03-26T19:34:04.232Z,38.20
2019-03-26T19:36:33.542Z,38.50
2019-03-26T19:39:06.504Z,38.70
2019-03-26T19:41:35.769Z,38.60
2019-03-26T19:44:06.246Z,39.10
2019-03-26T19:46:35.588Z,39.70
2019-03-26T19:49:04.874Z,39.40
2019-03-26T19:51:34.120Z,39.70
2019-03-26T19:54:03.424Z,39.80
2019-03-26T19:56:32.776Z,39.90
2019-03-26T19:59:02.058Z,39.30
2019-03-26T20:01:31.358Z,39.70
2019-03-26T20:04:00.691Z,39.90
2019-03-26T20:06:30.038Z,40.50
2019-03-26T20:08:59.331Z,40.00
2019-03-26T20:11:28.883Z,40.40
2019-03-26T20:13:58.383Z,40.80
2019-03-26T20:16:36.580Z,40.90
2019-03-26T20:18:58.481Z,41.10
2019-03-26T20:21:28.859Z,41.30
2019-03-26T20:23:58.215Z,41.00
2019-03-26T20:26:27.500Z,40.70
2019-03-26T20:28:56.871Z,40.80
2019-03-26T20:31:26.297Z,41.20
2019-03-26T20:33:55.734Z,41.00
2019-03-26T20:36:25.093Z,41.30
2019-03-26T20:38:54.405Z,41.30
2019-03-26T20:41:23.807Z,41.70
2019-03-26T20:43:53.447Z,41.40
2019-03-26T20:46:22.695Z,41.10
2019-03-26T20:48:52.036Z,41.10
2019-03-26T20:51:21.343Z,41.10
2019-03-26T20:53:50.797Z,41.10
2019-03-26T20:56:20.100Z,41.20
2019-03-26T20:58:49.547Z,41.10
2019-03-26T21:01:19.416Z,40.90
2019-03-26T21:03:48.769Z,40.80
2019-03-26T21:06:19.362Z,41.10
2019-03-26T21:08:48.616Z,41.00
2019-03-26T21:11:17.868Z,41.20
2019-03-26T21:13:50.964Z,40.60
2019-03-26T21:16:20.390Z,40.90
2019-03-26T21:18:49.670Z,41.00
2019-03-26T21:21:19.251Z,40.80
2019-03-26T21:23:48.561Z,41.10
2019-03-26T21:26:18.046Z,41.30
2019-03-26T21:28:47.382Z,41.00
2019-03-26T21:31:16.620Z,41.00
2019-03-26T21:33:45.885Z,41.20
2019-03-26T21:36:15.107Z,41.50
2019-03-26T21:38:44.396Z,41.60
2019-03-26T21:41:13.818Z,41.60
2019-03-26T21:43:43.074Z,42.30
2019-03-26T21:46:12.317Z,41.20
2019-03-26T21:48:41.674Z,41.30
2019-03-26T21:51:10.851Z,41.00
2019-03-26T21:53:40.128Z,41.50
2019-03-26T21:56:09.525Z,41.10
2019-03-26T21:58:38.806Z,40.90
2019-03-26T22:01:08.142Z,41.20
2019-03-26T22:03:37.540Z,41.00
2019-03-26T22:06:06.964Z,40.90
2019-03-26T22:08:36.191Z,40.90
2019-03-26T22:11:06.860Z,41.00
2019-03-26T22:13:36.142Z,41.00
2019-03-26T22:16:05.408Z,41.00
2019-03-26T22:18:34.634Z,41.30
2019-03-26T22:21:03.833Z,41.50
2019-03-26T22:23:33.187Z,41.60
2019-03-26T22:26:02.521Z,41.60
2019-03-26T22:28:31.879Z,41.80
2019-03-26T22:31:01.187Z,41.50
2019-03-26T22:33:30.596Z,41.50
2019-03-26T22:36:00.027Z,41.50
2019-03-26T22:38:29.370Z,41.50
2019-03-26T22:40:58.674Z,41.40
2019-03-26T22:43:28.976Z,41.50
2019-03-26T22:46:17.699Z,41.70
2019-03-26T22:48:47.002Z,41.60
2019-03-26T22:51:16.235Z,41.50
2019-03-26T22:53:45.458Z,41.90
2019-03-26T22:56:14.693Z,42.00
2019-03-26T22:58:43.862Z,42.20
2019-03-26T23:01:13.149Z,42.40
2019-03-26T23:03:44.162Z,42.50
2019-03-26T23:06:13.436Z,42.20
2019-03-26T23:08:42.800Z,42.50
2019-03-26T23:11:12.285Z,42.60
2019-03-26T23:13:41.633Z,42.70
2019-03-26T23:16:10.933Z,42.70
2019-03-26T23:18:40.180Z,42.90
2019-03-26T23:21:09.411Z,42.70
2019-03-26T23:23:38.653Z,42.70
2019-03-26T23:26:07.994Z,42.60
2019-03-26T23:28:37.378Z,43.00
2019-03-26T23:31:06.710Z,42.70
2019-03-26T23:33:36.109Z,42.90
2019-03-26T23:36:05.464Z,42.60
2019-03-26T23:38:34.818Z,42.70
2019-03-26T23:41:04.252Z,42.80
2019-03-26T23:43:33.544Z,42.40
2019-03-26T23:46:02.775Z,42.60
2019-03-26T23:48:32.230Z,42.70
2019-03-26T23:51:01.466Z,42.40
2019-03-26T23:53:30.762Z,42.90
2019-03-26T23:56:00.061Z,42.60
2019-03-26T23:58:29.334Z,42.70
